Tufão MINDULLE 2021: trajetória, intensidade e histórico
6/10/2021, 18:00:00
22/09/2021, 06:00:00 – 6/10/2021, 18:00:00
Trajetória histórica
Acompanhe a evolução e o deslocamento de Tufão MINDULLE em 2021, com a trajetória completa registrada, ventos máximos sustentados de 140 nós, pressão central mínima e cronologia detalhada.
| Data | Hora | Tipo | Ventokm/h | PressãohPa |
|---|---|---|---|---|
| 06/10 | 18:00 | EXCiclone extratropical | 65 | 980 |
| 06/10 | 15:00 | EXCiclone extratropical | 65 | 980 |
| 06/10 | 12:00 | EXCiclone extratropical | 65 | 980 |
| 06/10 | 09:00 | EXCiclone extratropical | 65 | 980 |
| 06/10 | 06:00 | EXCiclone extratropical | 65 | 980 |
| 06/10 | 03:00 | EXCiclone extratropical | 65 | 980 |
| 06/10 | 00:00 | EXCiclone extratropical | 65 | 980 |
| 05/10 | 21:00 | EXCiclone extratropical | 65 | 980 |
| 05/10 | 18:00 | EXCiclone extratropical | 65 | 980 |
| 05/10 | 15:00 | EXCiclone extratropical | 65 | 980 |
| 05/10 | 12:00 | EXCiclone extratropical | 65 | 980 |
| 05/10 | 09:00 | EXCiclone extratropical | 65 | 978 |
| 05/10 | 06:00 | EXCiclone extratropical | 70 | 976 |
| 05/10 | 03:00 | EXCiclone extratropical | 70 | 974 |
| 05/10 | 00:00 | EXCiclone extratropical | 70 | 972 |
| 04/10 | 21:00 | EXCiclone extratropical | 70 | 970 |
| 04/10 | 18:00 | EXCiclone extratropical | 70 | 968 |
| 04/10 | 15:00 | EXCiclone extratropical | 70 | 966 |
| 04/10 | 12:00 | EXCiclone extratropical | 70 | 964 |
| 04/10 | 09:00 | EXCiclone extratropical | 70 | 964 |
| 04/10 | 06:00 | EXCiclone extratropical | 70 | 964 |
| 04/10 | 03:00 | EXCiclone extratropical | 70 | 964 |
| 04/10 | 00:00 | EXCiclone extratropical | 70 | 964 |
| 03/10 | 21:00 | EXCiclone extratropical | 80 | 964 |
| 03/10 | 18:00 | EXCiclone extratropical | 90 | 964 |
| 03/10 | 15:00 | EXCiclone extratropical | 90 | 966 |
| 03/10 | 12:00 | EXCiclone extratropical | 90 | 968 |
| 03/10 | 09:00 | EXCiclone extratropical | 95 | 972 |
| 03/10 | 06:00 | EXCiclone extratropical | 100 | 976 |
| 03/10 | 03:00 | EXCiclone extratropical | 100 | 975 |
| 03/10 | 00:00 | EXCiclone extratropical | 100 | 978 |
| 02/10 | 21:00 | EXCiclone extratropical | 100 | 975 |
| 02/10 | 18:00 | EXCiclone extratropical | 100 | 980 |
| 02/10 | 15:00 | EXCiclone extratropical | 100 | 975 |
| 02/10 | 12:00 | EXCiclone extratropical | 100 | 976 |
| 02/10 | 09:00 | EXCiclone extratropical | 100 | 975 |
| 02/10 | 06:00 | EXCiclone extratropical | 75 | 983 |
| 02/10 | 03:00 | EXCiclone extratropical | 95 | 979 |
| 02/10 | 00:00 | EXCiclone extratropical | 110 | 974 |
| 01/10 | 21:00 | EXCiclone extratropical | 125 | 970 |
| 01/10 | 18:00 | TTufão | 140 | 965 |
| 01/10 | 15:00 | TTufão | 130 | 969 |
| 01/10 | 12:00 | TTufão | 120 | 972 |
| 01/10 | 09:00 | TTufão | 130 | 968 |
| 01/10 | 06:00 | TTufão | 140 | 964 |
| 01/10 | 03:00 | TTufão | 145 | 963 |
| 01/10 | 00:00 | TTufão | 150 | 961 |
| 30/09 | 21:00 | TTufão | 155 | 960 |
| 30/09 | 18:00 | TTufão | 155 | 958 |
| 30/09 | 15:00 | TTufão | 155 | 958 |
| 30/09 | 12:00 | TTufão | 155 | 958 |
| 30/09 | 09:00 | TTufão | 165 | 957 |
| 30/09 | 06:00 | TTufão | 165 | 956 |
| 30/09 | 03:00 | TTufão | 175 | 953 |
| 30/09 | 00:00 | STSupertufão | 185 | 949 |
| 29/09 | 21:00 | STSupertufão | 190 | 945 |
| 29/09 | 18:00 | STSupertufão | 195 | 940 |
| 29/09 | 15:00 | STSupertufão | 200 | 939 |
| 29/09 | 12:00 | STSupertufão | 205 | 937 |
| 29/09 | 09:00 | STSupertufão | 210 | 935 |
| 29/09 | 06:00 | STSupertufão | 215 | 933 |
| 29/09 | 03:00 | STSupertufão | 220 | 931 |
| 29/09 | 00:00 | STSupertufão | 220 | 928 |
| 28/09 | 21:00 | STSupertufão | 220 | 932 |
| 28/09 | 18:00 | STSupertufão | 215 | 935 |
| 28/09 | 15:00 | STSupertufão | 205 | 940 |
| 28/09 | 12:00 | STSupertufão | 195 | 945 |
| 28/09 | 09:00 | STSupertufão | 185 | 950 |
| 28/09 | 06:00 | TTufão | 175 | 954 |
| 28/09 | 03:00 | TTufão | 180 | 954 |
| 28/09 | 00:00 | STSupertufão | 185 | 953 |
| 27/09 | 21:00 | TTufão | 175 | 957 |
| 27/09 | 18:00 | TTufão | 165 | 961 |
| 27/09 | 15:00 | TTufão | 165 | 963 |
| 27/09 | 12:00 | TTufão | 155 | 965 |
| 27/09 | 09:00 | TTufão | 165 | 962 |
| 27/09 | 06:00 | TTufão | 165 | 959 |
| 27/09 | 03:00 | TTufão | 170 | 958 |
| 27/09 | 00:00 | TTufão | 175 | 956 |
| 26/09 | 21:00 | STSupertufão | 185 | 953 |
| 26/09 | 18:00 | STSupertufão | 195 | 949 |
| 26/09 | 15:00 | STSupertufão | 215 | 939 |
| 26/09 | 12:00 | STSupertufão | 230 | 928 |
| 26/09 | 09:00 | STSupertufão | 240 | 924 |
| 26/09 | 06:00 | STSupertufão | 250 | 919 |
| 26/09 | 03:00 | STSupertufão | 255 | 918 |
| 26/09 | 00:00 | STSupertufão | 260 | 916 |
| 25/09 | 21:00 | STSupertufão | 245 | 925 |
| 25/09 | 18:00 | STSupertufão | 230 | 933 |
| 25/09 | 15:00 | STSupertufão | 220 | 939 |
| 25/09 | 12:00 | STSupertufão | 215 | 944 |
| 25/09 | 09:00 | STSupertufão | 190 | 955 |
| 25/09 | 06:00 | TTufão | 165 | 965 |
| 25/09 | 03:00 | TTufão | 155 | 970 |
| 25/09 | 00:00 | TTufão | 150 | 974 |
| 24/09 | 21:00 | TTufão | 135 | 979 |
| 24/09 | 18:00 | STSTempestade tropical severa | 120 | 983 |
| 24/09 | 15:00 | TSTempestade tropical | 105 | 989 |
| 24/09 | 12:00 | STSTempestade tropical severa | 95 | 994 |
| 24/09 | 09:00 | TSTempestade tropical | 90 | 996 |
| 24/09 | 06:00 | TSTempestade tropical | 85 | 997 |
| 24/09 | 03:00 | TSTempestade tropical | 80 | 999 |
| 24/09 | 00:00 | TSTempestade tropical | 75 | 1000 |
| 23/09 | 21:00 | TSTempestade tropical | 70 | 1001 |
| 23/09 | 18:00 | TSTempestade tropical | 65 | 1001 |
| 23/09 | 15:00 | TSTempestade tropical | 65 | 1001 |
| 23/09 | 12:00 | TSTempestade tropical | 65 | 1001 |
| 23/09 | 09:00 | TDDepressão tropical | 60 | 1005 |
| 23/09 | 06:00 | TDDepressão tropical | 55 | 1008 |
| 23/09 | 03:00 | TDDepressão tropical | 55 | 1008 |
| 23/09 | 00:00 | TDDepressão tropical | 55 | 1007 |
| 22/09 | 21:00 | TDDepressão tropical | 50 | 1007 |
| 22/09 | 18:00 | TDDepressão tropical | 45 | 1006 |
| 22/09 | 15:00 | DBPerturbação tropical | 45 | 1007 |
| 22/09 | 12:00 | TDDepressão tropical | 35 | 1007 |
| 22/09 | 09:00 | DBPerturbação tropical | 35 | 1007 |
| 22/09 | 06:00 | DBPerturbação tropical | 35 | 1007 |
Cronologia de localização
117 Registos de localizaçãoDetalhes do evento
Ligações das fontes
A localização, a extensão e o estado de cada evento podem ser atualizados em momentos diferentes consoante a fonte. Confirme decisões importantes junto das autoridades oficiais de emergência.
Os registos de eventos provêm da NASA EONET e são complementados por registos de deslizamentos de terra do USGS FDSN. As análises e previsões de tempestades podem utilizar a NOAA NHC ou o JTWC, com registos históricos ATCF da UCAR/NCAR quando disponíveis. As imagens de satélite provêm da NASA Worldview/GIBS (GOES e Himawari) ou da EUMETSAT Meteosat, consoante a cobertura do mapa.
Fontes: NASA EONET · USGS · NOAA NHC · JTWC · UCAR/NCAR ATCF · NASA Worldview/GIBS · EUMETSAT Meteosat · OpenStreetMap contributors